sensor_id;sensor_type;location;lat;lon;timestamp;pressure;altitude;pressure_sealevel;temperature;humidity
39887;BME280;25559;44.738;20.980;2022-09-09T00:06:30;100421.44;;;23.24;73.13
39887;BME280;25559;44.738;20.980;2022-09-09T00:09:16;100422.16;;;23.27;73.23
39887;BME280;25559;44.738;20.980;2022-09-09T00:11:47;100419.50;;;23.27;73.45
39887;BME280;25559;44.738;20.980;2022-09-09T00:16:47;100420.22;;;23.29;73.73
39887;BME280;25559;44.738;20.980;2022-09-09T00:19:26;100416.22;;;23.23;74.17
39887;BME280;25559;44.738;20.980;2022-09-09T00:22:19;100410.44;;;23.18;74.53
39887;BME280;25559;44.738;20.980;2022-09-09T00:24:49;100414.44;;;23.11;74.81
39887;BME280;25559;44.738;20.980;2022-09-09T00:32:36;100419.09;;;23.07;75.78
39887;BME280;25559;44.738;20.980;2022-09-09T00:35:17;100421.09;;;23.03;76.29
39887;BME280;25559;44.738;20.980;2022-09-09T00:37:46;100429.34;;;22.99;76.69
39887;BME280;25559;44.738;20.980;2022-09-09T00:40:34;100431.13;;;22.98;76.89
39887;BME280;25559;44.738;20.980;2022-09-09T00:46:04;100432.94;;;22.98;76.89
39887;BME280;25559;44.738;20.980;2022-09-09T00:56:38;100412.00;;;22.82;78.20
39887;BME280;25559;44.738;20.980;2022-09-09T00:59:23;100421.00;;;22.79;78.21
39887;BME280;25559;44.738;20.980;2022-09-09T01:01:51;100427.44;;;22.75;78.61
39887;BME280;25559;44.738;20.980;2022-09-09T01:04:28;100433.03;;;22.70;78.93
39887;BME280;25559;44.738;20.980;2022-09-09T01:07:03;100428.50;;;22.73;78.99
39887;BME280;25559;44.738;20.980;2022-09-09T01:15:08;100413.94;;;22.67;80.04
39887;BME280;25559;44.738;20.980;2022-09-09T01:17:46;100412.44;;;22.63;80.14
39887;BME280;25559;44.738;20.980;2022-09-09T01:20:44;100413.59;;;22.59;80.50
39887;BME280;25559;44.738;20.980;2022-09-09T01:26:17;100420.91;;;22.55;80.88
39887;BME280;25559;44.738;20.980;2022-09-09T01:28:47;100430.69;;;22.53;80.98
39887;BME280;25559;44.738;20.980;2022-09-09T01:31:17;100436.06;;;22.51;81.01
39887;BME280;25559;44.738;20.980;2022-09-09T01:33:46;100433.44;;;22.51;81.04
39887;BME280;25559;44.738;20.980;2022-09-09T01:36:19;100439.59;;;22.52;81.33
39887;BME280;25559;44.738;20.980;2022-09-09T01:38:48;100439.78;;;22.49;81.75
39887;BME280;25559;44.738;20.980;2022-09-09T01:41:15;100435.66;;;22.45;82.10
39887;BME280;25559;44.738;20.980;2022-09-09T01:43:49;100441.25;;;22.40;82.63
39887;BME280;25559;44.738;20.980;2022-09-09T01:46:17;100448.75;;;22.33;82.78
39887;BME280;25559;44.738;20.980;2022-09-09T01:48:45;100450.69;;;22.30;83.14
39887;BME280;25559;44.738;20.980;2022-09-09T01:51:10;100449.50;;;22.21;83.43
39887;BME280;25559;44.738;20.980;2022-09-09T01:53:37;100454.03;;;22.19;83.71
39887;BME280;25559;44.738;20.980;2022-09-09T01:56:16;100461.44;;;22.14;83.95
39887;BME280;25559;44.738;20.980;2022-09-09T02:02:19;100461.31;;;22.15;84.22
39887;BME280;25559;44.738;20.980;2022-09-09T02:05:26;100448.03;;;22.17;83.99
39887;BME280;25559;44.738;20.980;2022-09-09T02:08:06;100450.78;;;22.15;84.40
39887;BME280;25559;44.738;20.980;2022-09-09T02:11:06;100461.53;;;22.12;84.42
39887;BME280;25559;44.738;20.980;2022-09-09T02:13:43;100460.88;;;22.09;84.82
39887;BME280;25559;44.738;20.980;2022-09-09T02:16:52;100461.28;;;22.03;85.19
39887;BME280;25559;44.738;20.980;2022-09-09T02:21:57;100469.94;;;22.05;85.11
39887;BME280;25559;44.738;20.980;2022-09-09T02:24:26;100475.03;;;22.08;85.16
39887;BME280;25559;44.738;20.980;2022-09-09T02:27:06;100474.06;;;22.09;85.20
39887;BME280;25559;44.738;20.980;2022-09-09T02:29:40;100480.19;;;22.09;84.89
39887;BME280;25559;44.738;20.980;2022-09-09T02:32:12;100480.75;;;22.14;84.82
39887;BME280;25559;44.738;20.980;2022-09-09T02:34:44;100476.19;;;22.16;84.65
39887;BME280;25559;44.738;20.980;2022-09-09T02:37:13;100473.56;;;22.16;84.86
39887;BME280;25559;44.738;20.980;2022-09-09T02:39:47;100474.53;;;22.15;84.86
39887;BME280;25559;44.738;20.980;2022-09-09T02:42:16;100474.53;;;22.15;84.86
39887;BME280;25559;44.738;20.980;2022-09-09T02:44:44;100469.25;;;22.15;85.22
39887;BME280;25559;44.738;20.980;2022-09-09T02:47:26;100470.19;;;22.14;85.18
39887;BME280;25559;44.738;20.980;2022-09-09T02:50:17;100470.63;;;22.21;84.83
39887;BME280;25559;44.738;20.980;2022-09-09T02:55:28;100476.28;;;22.15;85.34
39887;BME280;25559;44.738;20.980;2022-09-09T02:58:03;100464.28;;;22.11;85.59
39887;BME280;25559;44.738;20.980;2022-09-09T03:00:32;100459.09;;;22.09;86.01
39887;BME280;25559;44.738;20.980;2022-09-09T03:03:02;100462.56;;;22.10;85.99
39887;BME280;25559;44.738;20.980;2022-09-09T03:05:28;100453.06;;;22.07;86.36
39887;BME280;25559;44.738;20.980;2022-09-09T03:07:54;100455.78;;;22.06;86.38
39887;BME280;25559;44.738;20.980;2022-09-09T03:10:20;100447.13;;;22.04;86.50
39887;BME280;25559;44.738;20.980;2022-09-09T03:12:46;100446.19;;;22.05;86.25
39887;BME280;25559;44.738;20.980;2022-09-09T03:15:12;100444.41;;;22.05;86.11
39887;BME280;25559;44.738;20.980;2022-09-09T03:17:39;100439.84;;;22.07;86.09
39887;BME280;25559;44.738;20.980;2022-09-09T03:20:05;100439.56;;;22.12;85.79
39887;BME280;25559;44.738;20.980;2022-09-09T03:22:31;100425.19;;;22.03;85.83
39887;BME280;25559;44.738;20.980;2022-09-09T03:24:59;100436.38;;;22.07;85.90
39887;BME280;25559;44.738;20.980;2022-09-09T03:27:25;100438.09;;;22.08;85.65
39887;BME280;25559;44.738;20.980;2022-09-09T03:29:51;100439.44;;;22.00;85.93
39887;BME280;25559;44.738;20.980;2022-09-09T03:32:21;100439.44;;;22.00;86.03
39887;BME280;25559;44.738;20.980;2022-09-09T03:37:19;100456.09;;;22.01;86.37
39887;BME280;25559;44.738;20.980;2022-09-09T03:39:45;100449.72;;;21.91;86.84
39887;BME280;25559;44.738;20.980;2022-09-09T03:42:13;100461.34;;;21.88;87.00
39887;BME280;25559;44.738;20.980;2022-09-09T03:44:40;100462.47;;;21.84;87.12
39887;BME280;25559;44.738;20.980;2022-09-09T03:47:08;100469.75;;;21.80;87.42
39887;BME280;25559;44.738;20.980;2022-09-09T03:49:33;100475.84;;;21.81;87.47
39887;BME280;25559;44.738;20.980;2022-09-09T03:52:00;100465.59;;;21.76;87.99
39887;BME280;25559;44.738;20.980;2022-09-09T03:54:26;100478.69;;;21.78;88.50
39887;BME280;25559;44.738;20.980;2022-09-09T03:56:53;100483.97;;;21.78;88.57
39887;BME280;25559;44.738;20.980;2022-09-09T03:59:20;100486.78;;;21.75;89.13
39887;BME280;25559;44.738;20.980;2022-09-09T04:01:46;100482.75;;;21.69;89.44
39887;BME280;25559;44.738;20.980;2022-09-09T04:04:13;100487.38;;;21.65;90.49
39887;BME280;25559;44.738;20.980;2022-09-09T04:06:38;100482.28;;;21.62;90.78
39887;BME280;25559;44.738;20.980;2022-09-09T04:09:04;100475.13;;;21.64;90.79
39887;BME280;25559;44.738;20.980;2022-09-09T04:11:31;100478.78;;;21.62;91.18
39887;BME280;25559;44.738;20.980;2022-09-09T04:13:58;100489.34;;;21.62;91.47
39887;BME280;25559;44.738;20.980;2022-09-09T04:16:23;100492.84;;;21.62;91.53
39887;BME280;25559;44.738;20.980;2022-09-09T04:18:50;100497.44;;;21.59;91.96
39887;BME280;25559;44.738;20.980;2022-09-09T04:21:17;100494.06;;;21.57;92.30
39887;BME280;25559;44.738;20.980;2022-09-09T04:23:43;100504.41;;;21.60;92.25
39887;BME280;25559;44.738;20.980;2022-09-09T04:26:08;100496.72;;;21.57;92.61
39887;BME280;25559;44.738;20.980;2022-09-09T04:28:36;100490.94;;;21.79;92.64
39887;BME280;25559;44.738;20.980;2022-09-09T04:33:35;100496.25;;;22.06;89.96
39887;BME280;25559;44.738;20.980;2022-09-09T04:36:00;100488.22;;;22.08;89.87
39887;BME280;25559;44.738;20.980;2022-09-09T04:38:26;100494.84;;;22.00;90.23
39887;BME280;25559;44.738;20.980;2022-09-09T04:43:20;100522.25;;;21.98;91.17
39887;BME280;25559;44.738;20.980;2022-09-09T04:45:50;100541.94;;;21.92;91.70
39887;BME280;25559;44.738;20.980;2022-09-09T04:48:17;100539.59;;;21.88;92.36
39887;BME280;25559;44.738;20.980;2022-09-09T04:50:43;100536.03;;;21.89;92.75
39887;BME280;25559;44.738;20.980;2022-09-09T04:53:11;100547.13;;;21.94;92.88
39887;BME280;25559;44.738;20.980;2022-09-09T04:55:37;100543.06;;;22.03;92.48
39887;BME280;25559;44.738;20.980;2022-09-09T04:58:04;100537.59;;;22.06;91.22
39887;BME280;25559;44.738;20.980;2022-09-09T05:00:31;100537.97;;;22.14;91.51
39887;BME280;25559;44.738;20.980;2022-09-09T05:02:57;100528.28;;;22.27;91.93
39887;BME280;25559;44.738;20.980;2022-09-09T05:05:23;100530.06;;;22.41;91.65
39887;BME280;25559;44.738;20.980;2022-09-09T05:07:51;100532.84;;;22.52;91.41
39887;BME280;25559;44.738;20.980;2022-09-09T05:10:17;100533.47;;;22.56;92.28
39887;BME280;25559;44.738;20.980;2022-09-09T05:12:52;100530.63;;;22.59;93.90
39887;BME280;25559;44.738;20.980;2022-09-09T05:15:19;100534.13;;;22.60;95.30
39887;BME280;25559;44.738;20.980;2022-09-09T05:17:46;100538.66;;;22.58;96.17
39887;BME280;25559;44.738;20.980;2022-09-09T05:20:13;100534.44;;;22.55;97.98
39887;BME280;25559;44.738;20.980;2022-09-09T05:22:39;100536.22;;;22.54;100.00
39887;BME280;25559;44.738;20.980;2022-09-09T05:25:06;100542.38;;;22.55;100.00
39887;BME280;25559;44.738;20.980;2022-09-09T05:27:34;100544.81;;;22.58;100.00
39887;BME280;25559;44.738;20.980;2022-09-09T05:30:00;100540.81;;;22.65;100.00
39887;BME280;25559;44.738;20.980;2022-09-09T05:32:26;100543.06;;;22.71;100.00
39887;BME280;25559;44.738;20.980;2022-09-09T05:34:52;100535.97;;;22.72;100.00
39887;BME280;25559;44.738;20.980;2022-09-09T05:37:18;100535.03;;;22.73;100.00
39887;BME280;25559;44.738;20.980;2022-09-09T05:39:44;100540.41;;;22.71;100.00
39887;BME280;25559;44.738;20.980;2022-09-09T05:42:11;100547.38;;;22.73;100.00
39887;BME280;25559;44.738;20.980;2022-09-09T05:44:37;100560.25;;;22.77;100.00
39887;BME280;25559;44.738;20.980;2022-09-09T05:47:04;100565.25;;;22.82;100.00
39887;BME280;25559;44.738;20.980;2022-09-09T05:49:29;100566.63;;;22.87;100.00
39887;BME280;25559;44.738;20.980;2022-09-09T05:51:55;100573.00;;;22.98;100.00
39887;BME280;25559;44.738;20.980;2022-09-09T05:54:22;100574.00;;;23.10;100.00
39887;BME280;25559;44.738;20.980;2022-09-09T05:56:50;100554.00;;;23.18;100.00
39887;BME280;25559;44.738;20.980;2022-09-09T05:59:18;100559.09;;;23.34;100.00
39887;BME280;25559;44.738;20.980;2022-09-09T06:01:44;100546.19;;;23.55;100.00
39887;BME280;25559;44.738;20.980;2022-09-09T06:04:18;100534.06;;;23.77;100.00
39887;BME280;25559;44.738;20.980;2022-09-09T06:06:47;100526.00;;;24.28;100.00
39887;BME280;25559;44.738;20.980;2022-09-09T06:09:17;100511.84;;;24.76;100.00
39887;BME280;25559;44.738;20.980;2022-09-09T06:11:43;100516.41;;;25.21;100.00
39887;BME280;25559;44.738;20.980;2022-09-09T06:14:10;100507.63;;;25.54;96.63
39887;BME280;25559;44.738;20.980;2022-09-09T06:16:38;100507.34;;;25.80;94.16
39887;BME280;25559;44.738;20.980;2022-09-09T06:19:06;100509.16;;;25.91;92.46
39887;BME280;25559;44.738;20.980;2022-09-09T06:21:34;100510.00;;;26.03;90.29
39887;BME280;25559;44.738;20.980;2022-09-09T06:24:04;100509.75;;;26.06;88.89
39887;BME280;25559;44.738;20.980;2022-09-09T06:26:34;100511.22;;;25.87;88.41
39887;BME280;25559;44.738;20.980;2022-09-09T06:29:03;100505.41;;;25.94;88.17
39887;BME280;25559;44.738;20.980;2022-09-09T06:31:32;100512.63;;;25.92;88.07
39887;BME280;25559;44.738;20.980;2022-09-09T06:34:07;100518.94;;;25.91;89.19
39887;BME280;25559;44.738;20.980;2022-09-09T06:36:37;100529.56;;;25.91;89.15
39887;BME280;25559;44.738;20.980;2022-09-09T06:39:04;100540.41;;;25.87;89.27
39887;BME280;25559;44.738;20.980;2022-09-09T06:41:32;100550.91;;;25.89;88.92
39887;BME280;25559;44.738;20.980;2022-09-09T06:44:00;100551.75;;;25.89;87.46
39887;BME280;25559;44.738;20.980;2022-09-09T06:46:40;100560.66;;;25.88;87.87
39887;BME280;25559;44.738;20.980;2022-09-09T06:49:09;100566.09;;;25.87;86.25
39887;BME280;25559;44.738;20.980;2022-09-09T06:51:37;100577.56;;;25.76;86.99
39887;BME280;25559;44.738;20.980;2022-09-09T06:54:10;100578.06;;;25.70;87.41
39887;BME280;25559;44.738;20.980;2022-09-09T06:56:39;100589.75;;;25.67;87.54
39887;BME280;25559;44.738;20.980;2022-09-09T06:59:13;100595.78;;;25.58;87.42
39887;BME280;25559;44.738;20.980;2022-09-09T07:01:42;100600.97;;;25.48;88.46
39887;BME280;25559;44.738;20.980;2022-09-09T07:04:11;100603.72;;;25.35;88.77
39887;BME280;25559;44.738;20.980;2022-09-09T07:06:42;100603.69;;;25.24;88.65
39887;BME280;25559;44.738;20.980;2022-09-09T07:09:15;100604.03;;;25.19;90.66
39887;BME280;25559;44.738;20.980;2022-09-09T07:11:48;100607.03;;;25.15;90.85
39887;BME280;25559;44.738;20.980;2022-09-09T07:14:15;100610.16;;;25.09;90.96
39887;BME280;25559;44.738;20.980;2022-09-09T07:16:45;100608.47;;;25.08;90.88
39887;BME280;25559;44.738;20.980;2022-09-09T07:19:14;100606.44;;;25.11;90.67
39887;BME280;25559;44.738;20.980;2022-09-09T07:21:40;100606.91;;;25.16;90.19
39887;BME280;25559;44.738;20.980;2022-09-09T07:24:07;100611.16;;;25.19;89.43
39887;BME280;25559;44.738;20.980;2022-09-09T07:26:36;100606.81;;;25.18;89.14
39887;BME280;25559;44.738;20.980;2022-09-09T07:29:03;100603.44;;;25.27;89.13
39887;BME280;25559;44.738;20.980;2022-09-09T07:31:31;100595.63;;;25.37;88.08
39887;BME280;25559;44.738;20.980;2022-09-09T07:33:58;100587.59;;;25.50;88.06
39887;BME280;25559;44.738;20.980;2022-09-09T07:36:27;100591.56;;;25.67;86.81
39887;BME280;25559;44.738;20.980;2022-09-09T07:38:56;100592.19;;;25.82;84.92
39887;BME280;25559;44.738;20.980;2022-09-09T07:41:31;100591.22;;;25.83;83.90
39887;BME280;25559;44.738;20.980;2022-09-09T07:44:04;100591.69;;;25.88;83.61
39887;BME280;25559;44.738;20.980;2022-09-09T07:46:30;100600.38;;;25.90;82.91
39887;BME280;25559;44.738;20.980;2022-09-09T07:48:56;100604.00;;;25.89;83.01
39887;BME280;25559;44.738;20.980;2022-09-09T07:51:34;100618.25;;;25.88;84.10
39887;BME280;25559;44.738;20.980;2022-09-09T07:54:04;100624.97;;;25.81;84.56
39887;BME280;25559;44.738;20.980;2022-09-09T07:56:32;100620.16;;;25.75;85.33
39887;BME280;25559;44.738;20.980;2022-09-09T07:58:58;100629.94;;;25.74;84.89
39887;BME280;25559;44.738;20.980;2022-09-09T08:01:29;100636.81;;;25.65;85.15
39887;BME280;25559;44.738;20.980;2022-09-09T08:04:01;100636.94;;;25.64;85.40
39887;BME280;25559;44.738;20.980;2022-09-09T08:06:37;100652.72;;;25.65;85.75
39887;BME280;25559;44.738;20.980;2022-09-09T08:09:05;100639.59;;;25.64;86.02
39887;BME280;25559;44.738;20.980;2022-09-09T08:11:31;100647.19;;;25.68;85.06
39887;BME280;25559;44.738;20.980;2022-09-09T08:13:59;100654.66;;;25.75;84.85
39887;BME280;25559;44.738;20.980;2022-09-09T08:16:28;100648.88;;;25.81;84.96
39887;BME280;25559;44.738;20.980;2022-09-09T08:18:56;100643.69;;;25.79;83.82
39887;BME280;25559;44.738;20.980;2022-09-09T08:21:28;100655.28;;;25.78;84.05
39887;BME280;25559;44.738;20.980;2022-09-09T08:23:56;100654.78;;;25.73;83.78
39887;BME280;25559;44.738;20.980;2022-09-09T08:26:28;100664.06;;;25.67;83.76
39887;BME280;25559;44.738;20.980;2022-09-09T08:28:56;100659.22;;;25.61;83.40
39887;BME280;25559;44.738;20.980;2022-09-09T08:31:34;100669.72;;;25.63;83.81
39887;BME280;25559;44.738;20.980;2022-09-09T08:34:01;100670.56;;;25.52;84.43
39887;BME280;25559;44.738;20.980;2022-09-09T08:36:31;100661.53;;;25.43;84.06
39887;BME280;25559;44.738;20.980;2022-09-09T08:39:02;100660.66;;;25.43;83.65
39887;BME280;25559;44.738;20.980;2022-09-09T08:41:37;100660.28;;;25.47;83.39
39887;BME280;25559;44.738;20.980;2022-09-09T08:50:11;100659.50;;;25.69;81.31
39887;BME280;25559;44.738;20.980;2022-09-09T08:57:54;100653.97;;;26.06;79.25
39887;BME280;25559;44.738;20.980;2022-09-09T09:00:22;100653.63;;;26.22;78.59
39887;BME280;25559;44.738;20.980;2022-09-09T09:02:56;100644.16;;;26.41;78.21
39887;BME280;25559;44.738;20.980;2022-09-09T09:08:16;100636.41;;;27.14;76.02
39887;BME280;25559;44.738;20.980;2022-09-09T09:10:49;100644.06;;;27.50;72.53
39887;BME280;25559;44.738;20.980;2022-09-09T09:16:02;100630.41;;;28.45;69.31
39887;BME280;25559;44.738;20.980;2022-09-09T09:18:33;100637.19;;;29.18;66.28
39887;BME280;25559;44.738;20.980;2022-09-09T09:23:58;100628.06;;;29.77;62.45
39887;BME280;25559;44.738;20.980;2022-09-09T09:26:35;100638.81;;;29.58;62.79
39887;BME280;25559;44.738;20.980;2022-09-09T09:29:14;100629.88;;;29.39;62.87
39887;BME280;25559;44.738;20.980;2022-09-09T09:31:55;100638.72;;;30.15;61.22
39887;BME280;25559;44.738;20.980;2022-09-09T09:34:24;100633.06;;;31.18;57.42
39887;BME280;25559;44.738;20.980;2022-09-09T09:37:01;100618.63;;;31.98;54.29
39887;BME280;25559;44.738;20.980;2022-09-09T09:39:33;100623.34;;;32.71;51.77
39887;BME280;25559;44.738;20.980;2022-09-09T09:42:23;100630.09;;;33.81;48.35
39887;BME280;25559;44.738;20.980;2022-09-09T09:44:50;100616.91;;;34.57;45.70
39887;BME280;25559;44.738;20.980;2022-09-09T09:47:21;100624.94;;;34.88;44.91
39887;BME280;25559;44.738;20.980;2022-09-09T09:50:17;100614.41;;;34.79;45.17
39887;BME280;25559;44.738;20.980;2022-09-09T09:52:54;100616.66;;;34.67;44.63
39887;BME280;25559;44.738;20.980;2022-09-09T09:55:21;100608.72;;;34.50;44.49
39887;BME280;25559;44.738;20.980;2022-09-09T09:57:50;100615.81;;;34.43;44.26
39887;BME280;25559;44.738;20.980;2022-09-09T10:00:21;100605.50;;;34.78;43.53
39887;BME280;25559;44.738;20.980;2022-09-09T10:03:19;100609.34;;;34.99;42.67
39887;BME280;25559;44.738;20.980;2022-09-09T10:05:47;100604.16;;;34.97;42.86
39887;BME280;25559;44.738;20.980;2022-09-09T10:08:15;100598.38;;;34.85;43.33
39887;BME280;25559;44.738;20.980;2022-09-09T10:19:08;100598.97;;;34.26;43.84
39887;BME280;25559;44.738;20.980;2022-09-09T10:21:59;100589.78;;;34.44;43.54
39887;BME280;25559;44.738;20.980;2022-09-09T10:27:11;100584.63;;;34.34;42.04
39887;BME280;25559;44.738;20.980;2022-09-09T10:30:00;100588.88;;;34.51;41.88
39887;BME280;25559;44.738;20.980;2022-09-09T10:32:49;100588.53;;;34.69;39.80
39887;BME280;25559;44.738;20.980;2022-09-09T10:35:37;100584.38;;;35.05;37.98
39887;BME280;25559;44.738;20.980;2022-09-09T10:44:18;100582.91;;;35.62;36.18
39887;BME280;25559;44.738;20.980;2022-09-09T10:47:15;100586.16;;;35.13;37.71
39887;BME280;25559;44.738;20.980;2022-09-09T10:55:18;100576.06;;;36.54;35.57
39887;BME280;25559;44.738;20.980;2022-09-09T10:57:47;100572.47;;;36.69;36.12
39887;BME280;25559;44.738;20.980;2022-09-09T11:02:41;100559.56;;;36.92;35.31
39887;BME280;25559;44.738;20.980;2022-09-09T11:05:20;100561.81;;;36.17;35.87
39887;BME280;25559;44.738;20.980;2022-09-09T11:07:59;100562.97;;;35.42;38.83
39887;BME280;25559;44.738;20.980;2022-09-09T11:10:38;100556.53;;;34.75;40.40
39887;BME280;25559;44.738;20.980;2022-09-09T11:13:12;100543.75;;;34.07;42.98
39887;BME280;25559;44.738;20.980;2022-09-09T11:15:44;100542.19;;;33.42;44.01
39887;BME280;25559;44.738;20.980;2022-09-09T11:18:16;100543.84;;;32.70;46.76
39887;BME280;25559;44.738;20.980;2022-09-09T11:20:46;100535.59;;;32.22;49.11
39887;BME280;25559;44.738;20.980;2022-09-09T11:23:20;100531.34;;;31.95;49.29
39887;BME280;25559;44.738;20.980;2022-09-09T11:25:52;100537.13;;;31.66;50.23
39887;BME280;25559;44.738;20.980;2022-09-09T11:31:33;100530.00;;;30.96;51.70
39887;BME280;25559;44.738;20.980;2022-09-09T11:34:23;100525.53;;;30.52;53.53
39887;BME280;25559;44.738;20.980;2022-09-09T11:42:18;100515.63;;;29.81;55.45
39887;BME280;25559;44.738;20.980;2022-09-09T11:44:45;100510.16;;;29.72;55.45
39887;BME280;25559;44.738;20.980;2022-09-09T11:47:30;100512.44;;;29.67;56.10
39887;BME280;25559;44.738;20.980;2022-09-09T11:52:48;100504.66;;;29.46;54.59
39887;BME280;25559;44.738;20.980;2022-09-09T11:55:34;100512.19;;;29.33;55.83
39887;BME280;25559;44.738;20.980;2022-09-09T11:58:06;100514.19;;;29.21;54.99
39887;BME280;25559;44.738;20.980;2022-09-09T12:00:45;100516.22;;;28.89;54.51
39887;BME280;25559;44.738;20.980;2022-09-09T12:05:57;100504.88;;;28.58;55.93
39887;BME280;25559;44.738;20.980;2022-09-09T12:08:27;100504.03;;;28.58;55.99
39887;BME280;25559;44.738;20.980;2022-09-09T12:10:57;100501.81;;;28.53;56.31
39887;BME280;25559;44.738;20.980;2022-09-09T12:13:24;100500.53;;;28.38;55.99
39887;BME280;25559;44.738;20.980;2022-09-09T12:15:58;100497.19;;;28.26;56.48
39887;BME280;25559;44.738;20.980;2022-09-09T12:18:46;100484.28;;;28.21;55.28
39887;BME280;25559;44.738;20.980;2022-09-09T12:21:34;100479.19;;;28.18;57.20
39887;BME280;25559;44.738;20.980;2022-09-09T12:24:07;100492.94;;;28.04;56.36
39887;BME280;25559;44.738;20.980;2022-09-09T12:26:37;100489.53;;;27.92;56.17
39887;BME280;25559;44.738;20.980;2022-09-09T12:32:09;100469.09;;;27.92;56.92
39887;BME280;25559;44.738;20.980;2022-09-09T12:34:48;100464.72;;;27.91;57.79
39887;BME280;25559;44.738;20.980;2022-09-09T12:37:42;100465.56;;;27.92;56.26
39887;BME280;25559;44.738;20.980;2022-09-09T12:40:37;100462.03;;;27.81;57.05
39887;BME280;25559;44.738;20.980;2022-09-09T12:43:21;100452.25;;;27.82;57.74
39887;BME280;25559;44.738;20.980;2022-09-09T12:45:49;100456.72;;;27.81;56.24
39887;BME280;25559;44.738;20.980;2022-09-09T12:48:29;100437.38;;;27.79;55.75
39887;BME280;25559;44.738;20.980;2022-09-09T12:50:56;100444.53;;;27.89;56.08
39887;BME280;25559;44.738;20.980;2022-09-09T12:53:23;100433.47;;;27.93;56.03
39887;BME280;25559;44.738;20.980;2022-09-09T12:56:04;100437.81;;;27.94;58.32
39887;BME280;25559;44.738;20.980;2022-09-09T12:58:32;100433.47;;;27.93;57.69
39887;BME280;25559;44.738;20.980;2022-09-09T13:00:59;100428.00;;;27.95;57.78
39887;BME280;25559;44.738;20.980;2022-09-09T13:03:26;100419.75;;;27.98;57.65
39887;BME280;25559;44.738;20.980;2022-09-09T13:05:53;100427.06;;;27.96;58.24
39887;BME280;25559;44.738;20.980;2022-09-09T13:08:20;100411.91;;;27.96;58.59
39887;BME280;25559;44.738;20.980;2022-09-09T13:11:08;100416.28;;;27.97;58.96
39887;BME280;25559;44.738;20.980;2022-09-09T13:13:39;100408.28;;;27.97;56.92
39887;BME280;25559;44.738;20.980;2022-09-09T13:16:15;100408.97;;;27.99;56.85
39887;BME280;25559;44.738;20.980;2022-09-09T13:18:43;100408.41;;;27.96;57.51
39887;BME280;25559;44.738;20.980;2022-09-09T13:21:09;100401.09;;;27.88;57.95
39887;BME280;25559;44.738;20.980;2022-09-09T13:23:37;100400.97;;;27.90;58.34
39887;BME280;25559;44.738;20.980;2022-09-09T13:26:26;100408.41;;;27.96;57.51
39887;BME280;25559;44.738;20.980;2022-09-09T13:28:52;100410.13;;;27.97;57.35
39887;BME280;25559;44.738;20.980;2022-09-09T13:31:30;100407.97;;;27.91;56.63
39887;BME280;25559;44.738;20.980;2022-09-09T13:33:58;100411.16;;;27.84;57.23
39887;BME280;25559;44.738;20.980;2022-09-09T13:36:29;100405.97;;;27.83;57.84
39887;BME280;25559;44.738;20.980;2022-09-09T13:38:58;100405.28;;;27.81;55.85
39887;BME280;25559;44.738;20.980;2022-09-09T13:41:44;100393.81;;;27.80;56.21
39887;BME280;25559;44.738;20.980;2022-09-09T13:44:21;100392.38;;;27.86;56.77
39887;BME280;25559;44.738;20.980;2022-09-09T13:47:00;100400.38;;;27.86;57.08
39887;BME280;25559;44.738;20.980;2022-09-09T13:49:28;100396.59;;;27.89;56.39
39887;BME280;25559;44.738;20.980;2022-09-09T13:52:09;100396.78;;;27.97;57.07
39887;BME280;25559;44.738;20.980;2022-09-09T13:54:35;100395.78;;;27.98;55.30
39887;BME280;25559;44.738;20.980;2022-09-09T13:57:00;100399.31;;;27.98;55.79
39887;BME280;25559;44.738;20.980;2022-09-09T13:59:27;100401.97;;;27.98;56.29
39887;BME280;25559;44.738;20.980;2022-09-09T14:01:52;100387.38;;;28.03;55.61
39887;BME280;25559;44.738;20.980;2022-09-09T14:04:19;100384.56;;;28.04;55.33
39887;BME280;25559;44.738;20.980;2022-09-09T14:06:49;100386.97;;;27.97;54.98
39887;BME280;25559;44.738;20.980;2022-09-09T14:09:16;100391.72;;;28.04;54.49
39887;BME280;25559;44.738;20.980;2022-09-09T14:11:44;100387.25;;;28.04;54.47
39887;BME280;25559;44.738;20.980;2022-09-09T14:14:11;100372.13;;;28.05;54.71
39887;BME280;25559;44.738;20.980;2022-09-09T14:16:36;100382.78;;;28.05;54.54
39887;BME280;25559;44.738;20.980;2022-09-09T14:19:03;100375.59;;;28.05;55.57
39887;BME280;25559;44.738;20.980;2022-09-09T14:21:29;100377.44;;;28.05;55.05
39887;BME280;25559;44.738;20.980;2022-09-09T14:23:54;100373.06;;;27.94;53.56
39887;BME280;25559;44.738;20.980;2022-09-09T14:26:24;100360.47;;;27.96;55.05
39887;BME280;25559;44.738;20.980;2022-09-09T14:28:50;100359.38;;;27.98;54.33
39887;BME280;25559;44.738;20.980;2022-09-09T14:31:17;100363.41;;;27.93;53.03
39887;BME280;25559;44.738;20.980;2022-09-09T14:33:43;100359.47;;;27.87;53.39
39887;BME280;25559;44.738;20.980;2022-09-09T14:36:09;100357.38;;;27.81;54.47
39887;BME280;25559;44.738;20.980;2022-09-09T14:38:37;100352.03;;;27.81;52.59
39887;BME280;25559;44.738;20.980;2022-09-09T14:41:12;100355.28;;;27.65;51.20
39887;BME280;25559;44.738;20.980;2022-09-09T14:43:38;100359.16;;;27.51;53.53
39887;BME280;25559;44.738;20.980;2022-09-09T14:46:10;100355.53;;;27.52;54.44
39887;BME280;25559;44.738;20.980;2022-09-09T14:48:36;100347.72;;;27.60;54.90
39887;BME280;25559;44.738;20.980;2022-09-09T14:51:09;100347.28;;;27.65;53.38
39887;BME280;25559;44.738;20.980;2022-09-09T14:53:35;100344.63;;;27.65;54.67